createdAt,value
2022-08-25T00:01:58.221Z,76.14
2022-08-25T00:04:29.601Z,76.48
2022-08-25T00:07:02.702Z,76.91
2022-08-25T00:09:32.663Z,76.71
2022-08-25T00:12:01.604Z,77.37
2022-08-25T00:14:33.550Z,76.59
2022-08-25T00:17:02.378Z,76.70
2022-08-25T00:19:34.752Z,76.83
2022-08-25T00:22:05.902Z,76.68
2022-08-25T00:24:34.044Z,76.53
2022-08-25T00:27:02.775Z,76.81
2022-08-25T00:29:32.094Z,77.04
2022-08-25T00:32:01.429Z,77.16
2022-08-25T00:34:35.127Z,76.54
2022-08-25T00:37:04.244Z,75.90
2022-08-25T00:39:32.259Z,75.63
2022-08-25T00:42:00.574Z,75.60
2022-08-25T00:44:31.518Z,75.87
2022-08-25T00:47:01.805Z,75.88
2022-08-25T00:49:35.020Z,75.25
2022-08-25T00:52:07.052Z,75.38
2022-08-25T00:54:39.099Z,75.08
2022-08-25T00:57:11.387Z,74.96
2022-08-25T00:59:40.420Z,74.91
2022-08-25T01:02:13.598Z,75.10
2022-08-25T01:04:47.580Z,75.26
2022-08-25T01:07:20.140Z,75.77
2022-08-25T01:09:51.158Z,74.50
2022-08-25T01:12:19.432Z,74.79
2022-08-25T01:14:48.028Z,74.81
2022-08-25T01:17:17.003Z,74.45
2022-08-25T01:19:46.518Z,74.72
2022-08-25T01:22:17.361Z,74.63
2022-08-25T01:24:53.379Z,74.70
2022-08-25T01:27:21.516Z,74.96
2022-08-25T01:29:49.517Z,75.10
2022-08-25T01:32:17.609Z,75.02
2022-08-25T01:34:46.703Z,75.90
2022-08-25T01:37:19.179Z,74.88
2022-08-25T01:39:47.920Z,75.88
2022-08-25T01:42:35.134Z,75.44
2022-08-25T01:45:03.218Z,75.18
2022-08-25T01:47:32.013Z,75.69
2022-08-25T01:50:00.199Z,75.38
2022-08-25T01:52:35.325Z,75.26
2022-08-25T01:55:03.440Z,75.52
2022-08-25T01:57:32.264Z,75.41
2022-08-25T02:00:01.748Z,75.29
2022-08-25T02:02:31.721Z,75.92
2022-08-25T02:05:01.128Z,74.96
2022-08-25T02:07:30.592Z,75.05
2022-08-25T02:09:59.364Z,75.43
2022-08-25T02:12:31.927Z,75.51
2022-08-25T02:15:01.752Z,75.49
2022-08-25T02:17:30.024Z,75.87
2022-08-25T02:19:58.115Z,74.73
2022-08-25T02:22:26.197Z,75.44
2022-08-25T02:24:55.656Z,74.91
2022-08-25T02:27:24.227Z,75.04
2022-08-25T02:29:52.412Z,73.82
2022-08-25T02:32:20.409Z,73.80
2022-08-25T02:34:48.523Z,73.63
2022-08-25T02:37:17.014Z,73.09
2022-08-25T02:39:45.209Z,73.12
2022-08-25T02:42:14.787Z,72.91
2022-08-25T02:44:42.855Z,73.23
2022-08-25T02:47:10.948Z,73.52
2022-08-25T02:49:38.998Z,72.64
2022-08-25T02:52:07.308Z,72.59
2022-08-25T02:54:35.642Z,73.13
2022-08-25T02:57:03.792Z,72.33
2022-08-25T02:59:33.246Z,72.25
2022-08-25T03:02:02.362Z,71.83
2022-08-25T03:04:32.000Z,72.15
2022-08-25T03:07:00.548Z,72.58
2022-08-25T03:09:28.667Z,72.37
2022-08-25T03:11:56.834Z,72.48
2022-08-25T03:14:25.020Z,72.96
2022-08-25T03:16:54.567Z,72.45
2022-08-25T03:19:23.021Z,72.16
2022-08-25T03:21:52.510Z,72.52
2022-08-25T03:24:20.524Z,72.39
2022-08-25T03:26:56.190Z,72.21
2022-08-25T03:29:25.503Z,72.14
2022-08-25T03:31:58.222Z,71.99
2022-08-25T03:34:27.916Z,71.87
2022-08-25T03:36:57.036Z,71.94
2022-08-25T03:39:26.573Z,72.16
2022-08-25T03:41:55.113Z,72.55
2022-08-25T03:44:23.721Z,72.41
2022-08-25T03:46:54.093Z,72.79
2022-08-25T03:49:24.559Z,72.84
2022-08-25T03:51:54.909Z,72.77
2022-08-25T03:54:26.176Z,72.82
2022-08-25T03:56:54.849Z,72.70
2022-08-25T03:59:23.085Z,72.88
2022-08-25T04:01:55.002Z,72.00
2022-08-25T04:04:25.067Z,72.50
2022-08-25T04:06:54.020Z,72.13
2022-08-25T04:09:22.731Z,72.15
2022-08-25T04:11:53.271Z,72.40
2022-08-25T04:14:23.764Z,72.05
2022-08-25T04:16:53.040Z,72.66
2022-08-25T04:19:22.062Z,72.57
2022-08-25T04:21:51.900Z,72.57
2022-08-25T04:24:24.753Z,72.63
2022-08-25T04:26:53.750Z,72.86
2022-08-25T04:29:24.298Z,72.63
2022-08-25T04:31:53.437Z,72.98
2022-08-25T04:34:29.350Z,73.38
2022-08-25T04:37:01.698Z,73.08
2022-08-25T04:39:30.287Z,72.67
2022-08-25T04:42:00.701Z,73.53
2022-08-25T04:44:29.688Z,73.03
2022-08-25T04:46:57.979Z,73.53
2022-08-25T04:49:26.335Z,73.54
2022-08-25T04:51:54.433Z,73.33
2022-08-25T04:54:23.992Z,73.64
2022-08-25T04:56:58.426Z,74.13
2022-08-25T04:59:30.006Z,74.02
2022-08-25T05:02:02.324Z,73.56
2022-08-25T05:04:30.993Z,73.52
2022-08-25T05:06:59.444Z,73.82
2022-08-25T05:09:32.325Z,73.78
2022-08-25T05:12:01.097Z,73.29
2022-08-25T05:14:30.180Z,73.61
2022-08-25T05:16:59.063Z,73.93
2022-08-25T05:19:27.474Z,74.38
2022-08-25T05:21:57.768Z,73.67
2022-08-25T05:24:29.648Z,73.84
2022-08-25T05:26:58.241Z,73.59
2022-08-25T05:29:27.037Z,73.68
2022-08-25T05:31:55.193Z,73.63
2022-08-25T05:34:23.311Z,73.75
2022-08-25T05:36:51.661Z,73.74
2022-08-25T05:39:19.799Z,74.14
2022-08-25T05:41:49.224Z,73.84
2022-08-25T05:44:20.533Z,73.63
2022-08-25T05:46:49.699Z,73.88
2022-08-25T05:49:17.749Z,73.70
2022-08-25T05:51:45.795Z,73.31
2022-08-25T05:54:13.925Z,73.44
2022-08-25T05:56:41.950Z,73.29
2022-08-25T05:59:11.738Z,73.52
2022-08-25T06:01:57.187Z,72.57
2022-08-25T06:04:25.634Z,73.59
2022-08-25T06:06:54.987Z,73.92
2022-08-25T06:09:24.291Z,72.74
2022-08-25T06:11:54.982Z,72.71
2022-08-25T06:14:25.340Z,73.69
2022-08-25T06:16:53.922Z,72.93
2022-08-25T06:19:23.532Z,72.70
2022-08-25T06:21:55.030Z,72.33
2022-08-25T06:24:23.685Z,72.80
2022-08-25T06:26:51.901Z,72.50
2022-08-25T06:29:20.069Z,72.02
2022-08-25T06:31:50.055Z,71.47
2022-08-25T06:34:19.222Z,71.77
2022-08-25T06:36:49.434Z,71.07
2022-08-25T06:39:18.051Z,70.56
2022-08-25T06:41:46.077Z,70.86
2022-08-25T06:44:14.478Z,70.08
2022-08-25T06:46:44.431Z,68.91
2022-08-25T06:49:14.019Z,68.90
2022-08-25T06:51:42.888Z,68.91
2022-08-25T06:54:11.244Z,67.34
2022-08-25T06:56:41.799Z,67.55
2022-08-25T06:59:11.232Z,65.55
2022-08-25T07:01:39.529Z,64.43
2022-08-25T07:04:12.923Z,64.53
2022-08-25T07:06:43.009Z,65.16
2022-08-25T07:09:12.448Z,63.33
2022-08-25T07:11:40.708Z,61.95
2022-08-25T07:14:11.079Z,61.63
2022-08-25T07:16:39.557Z,62.74
2022-08-25T07:19:10.122Z,61.67
2022-08-25T07:21:45.912Z,61.97
2022-08-25T07:24:16.446Z,61.66
2022-08-25T07:26:46.686Z,61.32
2022-08-25T07:29:17.891Z,61.51
2022-08-25T07:31:46.462Z,59.47
2022-08-25T07:34:32.341Z,59.07
2022-08-25T07:37:04.496Z,58.19
2022-08-25T07:39:35.681Z,56.88
2022-08-25T07:42:04.933Z,58.23
2022-08-25T07:44:37.337Z,57.45
2022-08-25T07:47:06.318Z,54.95
2022-08-25T07:52:23.963Z,54.37
2022-08-25T07:54:53.910Z,53.76
2022-08-25T07:57:24.668Z,52.04
2022-08-25T07:59:52.859Z,53.54
2022-08-25T08:02:21.167Z,52.08
2022-08-25T08:04:54.622Z,50.36
2022-08-25T08:07:43.370Z,49.90
2022-08-25T08:10:48.181Z,49.41
2022-08-25T08:13:03.173Z,50.16
2022-08-25T08:15:31.398Z,48.93
2022-08-25T08:17:59.892Z,48.33
2022-08-25T08:20:28.906Z,48.55
2022-08-25T08:22:58.752Z,45.12
2022-08-25T08:25:27.602Z,45.60
2022-08-25T08:27:56.762Z,44.45
2022-08-25T08:30:25.927Z,45.05
2022-08-25T08:33:11.862Z,44.07
2022-08-25T08:35:41.125Z,44.56
2022-08-25T08:38:17.334Z,43.24
2022-08-25T08:41:12.995Z,43.00
2022-08-25T08:43:43.430Z,43.95
2022-08-25T08:46:11.909Z,43.69
2022-08-25T08:48:50.640Z,42.71
2022-08-25T08:51:24.746Z,41.29
2022-08-25T08:54:00.959Z,41.27
2022-08-25T08:56:32.912Z,41.76
2022-08-25T08:59:06.229Z,43.38
2022-08-25T09:01:41.447Z,42.94
2022-08-25T09:04:14.555Z,42.56
2022-08-25T09:06:45.360Z,42.19
2022-08-25T09:09:20.107Z,41.97
2022-08-25T09:12:01.984Z,42.23
2022-08-25T09:14:46.861Z,41.39
2022-08-25T09:17:36.700Z,41.46
2022-08-25T09:20:18.978Z,39.79
2022-08-25T09:23:02.433Z,39.98
2022-08-25T09:25:54.143Z,39.84
2022-08-25T09:28:27.100Z,38.27
2022-08-25T09:31:01.054Z,39.30
2022-08-25T09:33:35.517Z,37.31
2022-08-25T09:36:06.180Z,37.63
2022-08-25T09:38:35.007Z,37.07
2022-08-25T09:41:05.268Z,37.42
2022-08-25T09:43:36.855Z,37.45
2022-08-25T09:46:12.675Z,34.44
2022-08-25T09:48:48.503Z,35.28
2022-08-25T09:51:28.422Z,35.92
2022-08-25T09:54:00.610Z,35.41
2022-08-25T09:56:32.486Z,34.59
2022-08-25T09:59:20.702Z,34.68
2022-08-25T10:02:05.360Z,34.23
2022-08-25T10:04:36.955Z,33.68
2022-08-25T10:07:20.569Z,32.94
2022-08-25T10:09:54.363Z,31.70
2022-08-25T10:12:30.209Z,31.44
2022-08-25T10:14:58.416Z,32.07
2022-08-25T10:17:29.534Z,30.94
2022-08-25T10:20:20.024Z,29.69
2022-08-25T10:22:50.803Z,28.47
2022-08-25T10:25:25.495Z,29.27
2022-08-25T10:28:11.018Z,29.35
2022-08-25T10:30:52.708Z,29.54
2022-08-25T10:33:33.608Z,28.99
2022-08-25T10:36:09.624Z,27.18
2022-08-25T10:38:42.947Z,27.14
2022-08-25T10:41:36.902Z,26.31
2022-08-25T10:44:30.657Z,25.92
2022-08-25T10:47:34.480Z,25.95
2022-08-25T10:50:11.543Z,26.95
2022-08-25T10:52:44.363Z,26.67
2022-08-25T10:55:19.855Z,26.60
2022-08-25T10:57:57.547Z,27.17
2022-08-25T11:00:33.342Z,23.86
2022-08-25T11:03:14.343Z,24.89
2022-08-25T11:05:47.207Z,24.25
2022-08-25T11:08:21.534Z,24.24
2022-08-25T11:10:54.769Z,24.10
2022-08-25T11:13:28.106Z,23.88
2022-08-25T11:16:17.168Z,24.65
2022-08-25T11:18:55.126Z,23.49
2022-08-25T11:21:34.778Z,24.16
2022-08-25T11:24:15.889Z,23.00
2022-08-25T11:26:48.827Z,23.71
2022-08-25T11:29:21.225Z,22.74
2022-08-25T11:31:54.188Z,21.96
2022-08-25T11:34:23.548Z,21.69
2022-08-25T11:36:54.598Z,22.54
2022-08-25T11:39:41.240Z,21.66
2022-08-25T11:42:20.457Z,21.70
2022-08-25T11:45:01.679Z,22.04
2022-08-25T11:47:58.477Z,23.13
2022-08-25T11:50:31.350Z,22.47
2022-08-25T11:53:00.918Z,21.57
2022-08-25T11:55:48.313Z,21.38
2022-08-25T11:58:34.050Z,20.65
2022-08-25T12:01:03.772Z,22.16
2022-08-25T12:04:12.563Z,21.01
2022-08-25T12:07:19.415Z,21.68
2022-08-25T12:10:20.920Z,21.99
2022-08-25T12:13:04.868Z,20.68
2022-08-25T12:16:00.598Z,20.44
2022-08-25T12:18:45.997Z,21.69
2022-08-25T12:21:30.242Z,20.50
2022-08-25T12:24:12.965Z,20.53
2022-08-25T12:26:50.106Z,19.48
2022-08-25T12:29:28.744Z,20.29
2022-08-25T12:32:16.627Z,20.65
2022-08-25T12:35:26.405Z,19.84
2022-08-25T12:38:04.675Z,20.45
2022-08-25T12:40:37.210Z,20.45
2022-08-25T12:43:10.164Z,20.16
2022-08-25T12:45:46.389Z,19.72
2022-08-25T12:48:43.220Z,20.12
2022-08-25T12:51:19.512Z,20.54
2022-08-25T12:53:53.367Z,19.75
2022-08-25T12:56:29.057Z,19.07
2022-08-25T12:59:12.964Z,19.36
2022-08-25T13:02:03.163Z,18.83
2022-08-25T13:04:59.387Z,18.81
2022-08-25T13:07:43.963Z,19.43
2022-08-25T13:10:35.281Z,19.08
2022-08-25T13:13:10.338Z,20.38
2022-08-25T13:15:41.593Z,20.29
2022-08-25T13:18:21.819Z,20.08
2022-08-25T13:20:52.635Z,19.89
2022-08-25T13:23:29.195Z,20.00
2022-08-25T13:25:59.406Z,19.56
2022-08-25T13:28:31.158Z,18.60
2022-08-25T13:31:06.531Z,19.24
2022-08-25T13:33:35.537Z,17.81
2022-08-25T13:36:22.334Z,17.99
2022-08-25T13:38:51.416Z,19.01
2022-08-25T13:41:28.908Z,18.01
2022-08-25T13:43:59.769Z,18.96
2022-08-25T13:46:30.112Z,17.78
2022-08-25T13:49:05.365Z,18.76
2022-08-25T13:51:34.798Z,18.86
2022-08-25T13:54:05.873Z,18.83
2022-08-25T13:56:40.947Z,18.05
2022-08-25T13:59:23.144Z,17.86
2022-08-25T14:01:54.083Z,17.00
2022-08-25T14:04:31.990Z,17.78
2022-08-25T14:07:15.384Z,19.04
2022-08-25T14:09:52.244Z,18.11
2022-08-25T14:12:41.791Z,17.74
2022-08-25T14:15:29.481Z,18.61
2022-08-25T14:18:07.185Z,18.21
2022-08-25T14:20:37.353Z,17.37
2022-08-25T14:23:09.966Z,16.74
2022-08-25T14:25:40.447Z,17.22
2022-08-25T14:28:13.716Z,17.32
2022-08-25T14:30:46.139Z,17.22
2022-08-25T14:33:16.176Z,17.62
2022-08-25T14:35:49.076Z,18.06
2022-08-25T14:38:18.651Z,18.18
2022-08-25T14:40:50.318Z,18.14
2022-08-25T14:43:23.800Z,18.04
2022-08-25T14:45:52.874Z,17.86
2022-08-25T14:48:26.930Z,18.15
2022-08-25T14:50:57.165Z,17.88
2022-08-25T14:53:25.307Z,17.59
2022-08-25T14:55:58.699Z,18.06
2022-08-25T14:58:33.815Z,17.86
2022-08-25T15:01:04.328Z,18.64
2022-08-25T15:03:35.177Z,18.57
2022-08-25T15:06:04.390Z,18.07
2022-08-25T15:08:50.328Z,18.78
2022-08-25T15:11:18.982Z,18.79
2022-08-25T15:13:49.762Z,19.32
2022-08-25T15:16:24.829Z,20.04
2022-08-25T15:19:03.127Z,19.08
2022-08-25T15:21:35.597Z,19.68
2022-08-25T15:24:04.104Z,19.14
2022-08-25T15:26:44.972Z,19.21
2022-08-25T15:29:15.747Z,19.15
2022-08-25T15:31:43.877Z,19.57
2022-08-25T15:34:12.458Z,20.30
2022-08-25T15:36:41.498Z,20.92
2022-08-25T15:39:10.273Z,20.01
2022-08-25T15:41:38.662Z,20.72
2022-08-25T15:44:08.160Z,20.06
2022-08-25T15:46:39.449Z,22.12
2022-08-25T15:49:07.775Z,20.62
2022-08-25T15:51:36.825Z,21.77
2022-08-25T15:54:05.468Z,21.12
2022-08-25T15:56:33.513Z,21.26
2022-08-25T15:59:05.438Z,22.34
2022-08-25T16:01:38.329Z,23.64
2022-08-25T16:04:06.483Z,22.48
2022-08-25T16:06:35.020Z,22.57
2022-08-25T16:09:03.284Z,22.73
2022-08-25T16:11:34.816Z,22.78
2022-08-25T16:14:03.602Z,23.14
2022-08-25T16:16:33.406Z,23.15
2022-08-25T16:19:03.009Z,24.77
2022-08-25T16:21:35.536Z,24.13
2022-08-25T16:24:07.909Z,23.32
2022-08-25T16:26:36.888Z,25.26
2022-08-25T16:29:06.601Z,23.33
2022-08-25T16:31:36.015Z,26.22
2022-08-25T16:34:05.615Z,26.46
2022-08-25T16:36:34.654Z,24.07
2022-08-25T16:39:02.807Z,24.93
2022-08-25T16:41:35.710Z,25.54
2022-08-25T16:44:07.728Z,25.76
2022-08-25T16:46:40.718Z,24.28
2022-08-25T16:49:11.859Z,24.78
2022-08-25T16:51:41.168Z,26.87
2022-08-25T16:54:30.443Z,26.43
2022-08-25T16:56:58.751Z,28.63
2022-08-25T16:59:27.316Z,27.37
2022-08-25T17:01:55.644Z,27.35
2022-08-25T17:04:27.502Z,25.75
2022-08-25T17:07:01.723Z,28.40
2022-08-25T17:09:30.734Z,25.45
2022-08-25T17:11:58.869Z,28.26
2022-08-25T17:14:27.003Z,30.03
2022-08-25T17:16:55.498Z,31.37
2022-08-25T17:19:25.939Z,30.96
2022-08-25T17:21:55.172Z,31.21
2022-08-25T17:24:29.379Z,31.87
2022-08-25T17:27:01.462Z,29.97
2022-08-25T17:29:30.400Z,33.13
2022-08-25T17:31:59.495Z,33.21
2022-08-25T17:34:31.730Z,31.97
2022-08-25T17:37:00.089Z,32.10
2022-08-25T17:39:28.493Z,34.49
2022-08-25T17:41:56.630Z,34.64
2022-08-25T17:44:24.867Z,34.77
2022-08-25T17:46:53.051Z,34.68
2022-08-25T17:49:21.479Z,35.09
2022-08-25T17:51:52.605Z,35.96
2022-08-25T17:54:20.710Z,35.84
2022-08-25T17:56:48.871Z,36.44
2022-08-25T17:59:18.844Z,38.40
2022-08-25T18:01:50.109Z,50.05
2022-08-25T18:04:23.749Z,55.24
2022-08-25T18:06:58.602Z,59.03
2022-08-25T18:09:26.820Z,60.01
2022-08-25T18:11:55.026Z,62.57
2022-08-25T18:14:25.546Z,61.08
2022-08-25T18:16:54.366Z,63.40
2022-08-25T18:19:22.648Z,60.63
2022-08-25T18:21:51.950Z,61.09
2022-08-25T18:24:23.647Z,64.68
2022-08-25T18:26:52.050Z,63.32
2022-08-25T18:29:20.766Z,64.14
2022-08-25T18:31:49.398Z,65.03
2022-08-25T18:34:19.570Z,59.77
2022-08-25T18:36:47.720Z,63.97
2022-08-25T18:39:34.868Z,64.29
2022-08-25T18:42:06.576Z,63.52
2022-08-25T18:44:35.573Z,64.23
2022-08-25T18:47:07.340Z,65.39
2022-08-25T18:49:37.684Z,65.57
2022-08-25T18:52:06.470Z,64.02
2022-08-25T18:54:36.106Z,64.55
2022-08-25T18:57:08.796Z,64.21
2022-08-25T18:59:37.225Z,64.94
2022-08-25T19:02:05.756Z,63.61
2022-08-25T19:04:34.025Z,63.14
2022-08-25T19:07:02.904Z,64.32
2022-08-25T19:09:32.383Z,64.61
2022-08-25T19:12:01.800Z,64.74
2022-08-25T19:14:31.677Z,65.09
2022-08-25T19:17:01.032Z,64.54
2022-08-25T19:19:29.463Z,66.84
2022-08-25T19:21:58.227Z,64.64
2022-08-25T19:24:28.379Z,60.99
2022-08-25T19:26:56.929Z,62.02
2022-08-25T19:29:26.494Z,62.77
2022-08-25T19:32:01.039Z,58.52
2022-08-25T19:34:32.912Z,58.76
2022-08-25T19:37:04.286Z,62.00
2022-08-25T19:39:33.356Z,58.95
2022-08-25T19:42:03.209Z,57.32
2022-08-25T19:44:31.897Z,63.03
2022-08-25T19:47:01.647Z,63.70
2022-08-25T19:49:34.258Z,65.59
2022-08-25T19:52:10.675Z,55.25
2022-08-25T19:54:44.259Z,53.98
2022-08-25T19:57:20.812Z,53.34
2022-08-25T19:59:57.668Z,54.27
2022-08-25T20:02:30.212Z,54.12
2022-08-25T20:05:00.440Z,57.92
2022-08-25T20:07:30.707Z,62.43
2022-08-25T20:10:00.180Z,61.86
2022-08-25T20:12:28.899Z,59.44
2022-08-25T20:14:57.611Z,56.07
2022-08-25T20:17:28.485Z,55.04
2022-08-25T20:19:59.369Z,59.21
2022-08-25T20:22:28.801Z,56.95
2022-08-25T20:24:58.899Z,58.00
2022-08-25T20:27:32.340Z,59.72
2022-08-25T20:30:02.870Z,60.15
2022-08-25T20:32:33.799Z,61.38
2022-08-25T20:35:02.967Z,62.32
2022-08-25T20:37:33.899Z,62.92
2022-08-25T20:40:02.573Z,63.31
2022-08-25T20:42:31.049Z,64.17
2022-08-25T20:44:59.724Z,65.35
2022-08-25T20:47:29.892Z,65.70
2022-08-25T20:50:03.372Z,66.57
2022-08-25T20:52:35.495Z,67.02
2022-08-25T20:55:04.027Z,67.63
2022-08-25T20:57:33.252Z,68.43
2022-08-25T21:00:02.486Z,69.15
2022-08-25T21:02:31.179Z,70.79
2022-08-25T21:05:01.956Z,72.11
2022-08-25T21:07:30.676Z,72.97
2022-08-25T21:09:58.903Z,74.09
2022-08-25T21:12:28.072Z,74.64
2022-08-25T21:14:56.145Z,76.20
2022-08-25T21:17:25.243Z,77.06
2022-08-25T21:19:53.265Z,78.40
2022-08-25T21:22:23.046Z,79.96
2022-08-25T21:24:51.600Z,81.38
2022-08-25T21:27:20.077Z,82.11
2022-08-25T21:29:55.239Z,84.35
2022-08-25T21:32:24.682Z,85.28
2022-08-25T21:34:54.542Z,85.32
2022-08-25T21:37:25.059Z,87.27
2022-08-25T21:39:53.903Z,87.52
2022-08-25T21:42:23.939Z,87.98
2022-08-25T21:44:54.233Z,88.99
2022-08-25T21:47:23.280Z,89.83
2022-08-25T21:49:51.769Z,90.26
2022-08-25T21:52:20.857Z,89.92
2022-08-25T21:54:50.302Z,89.74
2022-08-25T21:57:23.607Z,90.50
2022-08-25T21:59:52.039Z,90.59
2022-08-25T22:02:23.216Z,90.38
2022-08-25T22:04:52.912Z,90.72
2022-08-25T22:07:24.721Z,90.85
2022-08-25T22:09:54.988Z,90.58
2022-08-25T22:12:23.508Z,90.90
2022-08-25T22:14:53.191Z,91.63
2022-08-25T22:17:24.209Z,91.77
2022-08-25T22:19:53.676Z,92.52
2022-08-25T22:22:22.727Z,93.09
2022-08-25T22:24:52.495Z,94.07
2022-08-25T22:27:23.354Z,94.85
2022-08-25T22:29:52.520Z,95.38
2022-08-25T22:32:21.172Z,96.12
2022-08-25T22:34:49.872Z,97.28
2022-08-25T22:37:18.919Z,98.07
2022-08-25T22:39:47.393Z,97.84
2022-08-25T22:42:16.268Z,98.13
2022-08-25T22:44:45.638Z,99.58
2022-08-25T22:47:13.791Z,100.00
2022-08-25T22:49:41.913Z,100.00
2022-08-25T22:52:12.923Z,100.00
2022-08-25T22:54:42.495Z,100.00
2022-08-25T22:57:11.777Z,100.00
2022-08-25T22:59:40.618Z,100.00
2022-08-25T23:02:10.148Z,100.00
2022-08-25T23:04:41.229Z,100.00
2022-08-25T23:07:10.062Z,100.00
2022-08-25T23:09:38.477Z,100.00
2022-08-25T23:12:07.543Z,100.00
2022-08-25T23:14:36.715Z,100.00
2022-08-25T23:17:07.591Z,100.00
2022-08-25T23:19:39.967Z,100.00
2022-08-25T23:22:10.537Z,100.00
2022-08-25T23:24:42.554Z,100.00
2022-08-25T23:27:13.480Z,100.00
2022-08-25T23:29:43.909Z,100.00
2022-08-25T23:32:14.485Z,100.00
2022-08-25T23:34:46.734Z,100.00
2022-08-25T23:37:16.165Z,100.00
2022-08-25T23:39:49.902Z,100.00
2022-08-25T23:42:19.270Z,100.00
2022-08-25T23:44:47.586Z,100.00
2022-08-25T23:47:15.988Z,100.00
2022-08-25T23:49:45.699Z,100.00
2022-08-25T23:52:17.200Z,100.00
2022-08-25T23:54:46.429Z,100.00
2022-08-25T23:57:14.803Z,100.00
2022-08-25T23:59:43.336Z,100.00
